sensor_id;sensor_type;location;lat;lon;timestamp;pressure;altitude;pressure_sealevel;temperature;humidity
26775;BME280;14362;51.902;7.626;2023-03-13T00:02:05;99797.16;;;10.03;100.00
26775;BME280;14362;51.902;7.626;2023-03-13T00:06:07;99795.31;;;10.07;100.00
26775;BME280;14362;51.902;7.626;2023-03-13T00:10:10;99792.84;;;10.05;100.00
26775;BME280;14362;51.902;7.626;2023-03-13T00:14:12;99778.94;;;10.05;100.00
26775;BME280;14362;51.902;7.626;2023-03-13T00:18:13;99778.81;;;10.02;100.00
26775;BME280;14362;51.902;7.626;2023-03-13T00:22:15;99775.34;;;10.05;100.00
26775;BME280;14362;51.902;7.626;2023-03-13T00:26:19;99761.75;;;10.03;100.00
26775;BME280;14362;51.902;7.626;2023-03-13T00:30:21;99745.66;;;10.09;100.00
26775;BME280;14362;51.902;7.626;2023-03-13T00:34:23;99748.47;;;10.20;100.00
26775;BME280;14362;51.902;7.626;2023-03-13T00:38:27;99741.00;;;10.13;100.00
26775;BME280;14362;51.902;7.626;2023-03-13T00:42:30;99736.59;;;10.12;100.00
26775;BME280;14362;51.902;7.626;2023-03-13T00:46:31;99717.47;;;10.10;100.00
26775;BME280;14362;51.902;7.626;2023-03-13T00:50:32;99715.47;;;10.11;100.00
26775;BME280;14362;51.902;7.626;2023-03-13T00:54:34;99711.66;;;10.03;100.00
26775;BME280;14362;51.902;7.626;2023-03-13T00:58:38;99695.16;;;9.98;100.00
26775;BME280;14362;51.902;7.626;2023-03-13T01:02:40;99690.97;;;9.92;100.00
26775;BME280;14362;51.902;7.626;2023-03-13T01:06:42;99688.59;;;9.82;100.00
26775;BME280;14362;51.902;7.626;2023-03-13T01:10:43;99685.72;;;9.79;100.00
26775;BME280;14362;51.902;7.626;2023-03-13T01:14:48;99680.50;;;9.77;100.00
26775;BME280;14362;51.902;7.626;2023-03-13T01:18:52;99672.25;;;9.69;100.00
26775;BME280;14362;51.902;7.626;2023-03-13T01:22:53;99662.00;;;9.61;100.00
26775;BME280;14362;51.902;7.626;2023-03-13T01:26:55;99655.66;;;9.60;100.00
26775;BME280;14362;51.902;7.626;2023-03-13T01:30:58;99632.34;;;9.53;100.00
26775;BME280;14362;51.902;7.626;2023-03-13T01:35:00;99624.31;;;9.51;100.00
26775;BME280;14362;51.902;7.626;2023-03-13T01:39:01;99626.16;;;9.47;100.00
26775;BME280;14362;51.902;7.626;2023-03-13T01:43:14;99614.56;;;9.45;100.00
26775;BME280;14362;51.902;7.626;2023-03-13T01:47:18;99615.28;;;9.42;100.00
26775;BME280;14362;51.902;7.626;2023-03-13T01:51:22;99603.78;;;9.44;100.00
26775;BME280;14362;51.902;7.626;2023-03-13T01:55:24;99587.69;;;9.37;100.00
26775;BME280;14362;51.902;7.626;2023-03-13T01:59:27;99570.06;;;9.33;100.00
26775;BME280;14362;51.902;7.626;2023-03-13T02:03:32;99555.78;;;9.35;100.00
26775;BME280;14362;51.902;7.626;2023-03-13T02:07:40;99540.03;;;9.39;100.00
26775;BME280;14362;51.902;7.626;2023-03-13T02:11:47;99533.34;;;9.40;100.00
26775;BME280;14362;51.902;7.626;2023-03-13T02:15:51;99515.38;;;9.37;100.00
26775;BME280;14362;51.902;7.626;2023-03-13T02:19:53;99504.25;;;9.37;100.00
26775;BME280;14362;51.902;7.626;2023-03-13T02:23:59;99499.03;;;9.36;100.00
26775;BME280;14362;51.902;7.626;2023-03-13T02:28:06;99492.19;;;9.33;100.00
26775;BME280;14362;51.902;7.626;2023-03-13T02:32:09;99483.06;;;9.33;100.00
26775;BME280;14362;51.902;7.626;2023-03-13T02:36:11;99468.22;;;9.29;100.00
26775;BME280;14362;51.902;7.626;2023-03-13T02:40:17;99454.31;;;9.29;100.00
26775;BME280;14362;51.902;7.626;2023-03-13T02:44:22;99444.13;;;9.33;100.00
26775;BME280;14362;51.902;7.626;2023-03-13T02:48:30;99434.63;;;9.34;100.00
26775;BME280;14362;51.902;7.626;2023-03-13T02:52:33;99426.28;;;9.34;100.00
26775;BME280;14362;51.902;7.626;2023-03-13T02:56:41;99420.72;;;9.34;100.00
26775;BME280;14362;51.902;7.626;2023-03-13T03:00:45;99417.94;;;9.34;100.00
26775;BME280;14362;51.902;7.626;2023-03-13T03:04:46;99420.84;;;9.37;100.00
26775;BME280;14362;51.902;7.626;2023-03-13T03:08:48;99406.56;;;9.39;100.00
26775;BME280;14362;51.902;7.626;2023-03-13T03:12:49;99409.81;;;9.41;100.00
26775;BME280;14362;51.902;7.626;2023-03-13T03:16:52;99397.63;;;9.45;100.00
26775;BME280;14362;51.902;7.626;2023-03-13T03:20:53;99384.78;;;9.41;100.00
26775;BME280;14362;51.902;7.626;2023-03-13T03:24:55;99391.97;;;9.42;100.00
26775;BME280;14362;51.902;7.626;2023-03-13T03:28:56;99375.84;;;9.47;100.00
26775;BME280;14362;51.902;7.626;2023-03-13T03:33:01;99370.66;;;9.46;100.00
26775;BME280;14362;51.902;7.626;2023-03-13T03:37:03;99355.22;;;9.48;100.00
26775;BME280;14362;51.902;7.626;2023-03-13T03:41:05;99359.16;;;9.47;100.00
26775;BME280;14362;51.902;7.626;2023-03-13T03:45:07;99356.97;;;9.53;100.00
26775;BME280;14362;51.902;7.626;2023-03-13T03:49:10;99337.50;;;9.53;100.00
26775;BME280;14362;51.902;7.626;2023-03-13T03:53:11;99337.38;;;9.61;100.00
26775;BME280;14362;51.902;7.626;2023-03-13T03:57:13;99342.69;;;9.66;100.00
26775;BME280;14362;51.902;7.626;2023-03-13T04:01:14;99333.88;;;9.64;100.00
26775;BME280;14362;51.902;7.626;2023-03-13T04:05:17;99335.94;;;9.67;100.00
26775;BME280;14362;51.902;7.626;2023-03-13T04:09:21;99335.63;;;9.69;100.00
26775;BME280;14362;51.902;7.626;2023-03-13T04:13:23;99322.03;;;9.67;100.00
26775;BME280;14362;51.902;7.626;2023-03-13T04:17:24;99320.88;;;9.68;100.00
26775;BME280;14362;51.902;7.626;2023-03-13T04:21:28;99326.22;;;9.73;100.00
26775;BME280;14362;51.902;7.626;2023-03-13T04:25:29;99324.59;;;9.72;100.00
26775;BME280;14362;51.902;7.626;2023-03-13T04:29:30;99318.22;;;9.72;100.00
26775;BME280;14362;51.902;7.626;2023-03-13T04:33:32;99318.41;;;9.79;100.00
26775;BME280;14362;51.902;7.626;2023-03-13T04:37:37;99304.72;;;9.86;100.00
26775;BME280;14362;51.902;7.626;2023-03-13T04:41:38;99299.16;;;9.86;100.00
26775;BME280;14362;51.902;7.626;2023-03-13T04:45:40;99302.47;;;9.91;100.00
26775;BME280;14362;51.902;7.626;2023-03-13T04:49:41;99291.81;;;9.93;100.00
26775;BME280;14362;51.902;7.626;2023-03-13T04:53:44;99305.59;;;10.02;100.00
26775;BME280;14362;51.902;7.626;2023-03-13T04:57:45;99304.06;;;10.04;100.00
26775;BME280;14362;51.902;7.626;2023-03-13T05:01:46;99298.72;;;10.11;100.00
26775;BME280;14362;51.902;7.626;2023-03-13T05:05:48;99293.69;;;10.17;100.00
26775;BME280;14362;51.902;7.626;2023-03-13T05:09:51;99292.63;;;10.21;100.00
26775;BME280;14362;51.902;7.626;2023-03-13T05:13:53;99284.63;;;10.19;100.00
26775;BME280;14362;51.902;7.626;2023-03-13T05:17:54;99279.97;;;10.23;100.00
26775;BME280;14362;51.902;7.626;2023-03-13T05:21:55;99280.88;;;10.27;100.00
26775;BME280;14362;51.902;7.626;2023-03-13T05:25:58;99283.03;;;10.34;100.00
26775;BME280;14362;51.902;7.626;2023-03-13T05:30:00;99274.31;;;10.35;100.00
26775;BME280;14362;51.902;7.626;2023-03-13T05:34:01;99269.28;;;10.41;100.00
26775;BME280;14362;51.902;7.626;2023-03-13T05:38:03;99259.06;;;10.45;100.00
26775;BME280;14362;51.902;7.626;2023-03-13T05:42:06;99250.44;;;10.50;100.00
26775;BME280;14362;51.902;7.626;2023-03-13T05:46:07;99260.94;;;10.56;100.00
26775;BME280;14362;51.902;7.626;2023-03-13T05:50:09;99260.16;;;10.56;100.00
26775;BME280;14362;51.902;7.626;2023-03-13T05:54:11;99249.72;;;10.53;100.00
26775;BME280;14362;51.902;7.626;2023-03-13T05:58:14;99263.81;;;10.60;100.00
26775;BME280;14362;51.902;7.626;2023-03-13T06:02:15;99245.66;;;10.66;100.00
26775;BME280;14362;51.902;7.626;2023-03-13T06:06:17;99249.63;;;10.65;100.00
26775;BME280;14362;51.902;7.626;2023-03-13T06:10:18;99250.50;;;10.69;100.00
26775;BME280;14362;51.902;7.626;2023-03-13T06:14:21;99249.78;;;10.72;100.00
26775;BME280;14362;51.902;7.626;2023-03-13T06:18:25;99240.72;;;10.75;100.00
26775;BME280;14362;51.902;7.626;2023-03-13T06:22:27;99237.28;;;10.81;100.00
26775;BME280;14362;51.902;7.626;2023-03-13T06:26:29;99248.97;;;10.87;100.00
26775;BME280;14362;51.902;7.626;2023-03-13T06:30:32;99234.31;;;10.90;100.00
26775;BME280;14362;51.902;7.626;2023-03-13T06:34:34;99245.97;;;10.95;100.00
26775;BME280;14362;51.902;7.626;2023-03-13T06:38:35;99241.66;;;10.98;100.00
26775;BME280;14362;51.902;7.626;2023-03-13T06:42:37;99248.94;;;11.02;100.00
26775;BME280;14362;51.902;7.626;2023-03-13T06:46:40;99255.31;;;11.03;100.00
26775;BME280;14362;51.902;7.626;2023-03-13T06:50:41;99241.56;;;11.10;100.00
26775;BME280;14362;51.902;7.626;2023-03-13T06:54:43;99238.38;;;11.11;100.00
26775;BME280;14362;51.902;7.626;2023-03-13T06:58:45;99243.63;;;11.13;100.00
26775;BME280;14362;51.902;7.626;2023-03-13T07:02:49;99253.75;;;11.20;100.00
26775;BME280;14362;51.902;7.626;2023-03-13T07:06:50;99244.72;;;11.27;100.00
26775;BME280;14362;51.902;7.626;2023-03-13T07:10:53;99236.53;;;11.34;100.00
26775;BME280;14362;51.902;7.626;2023-03-13T07:14:54;99243.97;;;11.45;100.00
26775;BME280;14362;51.902;7.626;2023-03-13T07:18:57;99220.63;;;11.53;100.00
26775;BME280;14362;51.902;7.626;2023-03-13T07:22:59;99227.97;;;11.61;100.00
26775;BME280;14362;51.902;7.626;2023-03-13T07:27:00;99214.41;;;11.60;100.00
26775;BME280;14362;51.902;7.626;2023-03-13T07:31:03;99217.09;;;11.75;100.00
26775;BME280;14362;51.902;7.626;2023-03-13T07:35:06;99208.88;;;11.82;100.00
26775;BME280;14362;51.902;7.626;2023-03-13T07:39:08;99188.22;;;11.87;100.00
26775;BME280;14362;51.902;7.626;2023-03-13T07:43:09;99179.56;;;11.92;100.00
26775;BME280;14362;51.902;7.626;2023-03-13T07:47:11;99165.69;;;11.99;100.00
26775;BME280;14362;51.902;7.626;2023-03-13T07:51:15;99165.09;;;12.09;100.00
26775;BME280;14362;51.902;7.626;2023-03-13T07:55:17;99160.84;;;12.15;100.00
26775;BME280;14362;51.902;7.626;2023-03-13T07:59:19;99164.66;;;12.29;100.00
26775;BME280;14362;51.902;7.626;2023-03-13T08:03:20;99149.25;;;12.38;100.00
26775;BME280;14362;51.902;7.626;2023-03-13T08:07:23;99147.28;;;12.39;100.00
26775;BME280;14362;51.902;7.626;2023-03-13T08:11:26;99154.91;;;12.42;100.00
26775;BME280;14362;51.902;7.626;2023-03-13T08:15:28;99137.00;;;12.46;100.00
26775;BME280;14362;51.902;7.626;2023-03-13T08:19:30;99134.69;;;12.52;100.00
26775;BME280;14362;51.902;7.626;2023-03-13T08:23:33;99141.91;;;12.53;100.00
26775;BME280;14362;51.902;7.626;2023-03-13T08:27:35;99143.22;;;12.59;100.00
26775;BME280;14362;51.902;7.626;2023-03-13T08:31:40;99130.78;;;12.56;100.00
26775;BME280;14362;51.902;7.626;2023-03-13T08:35:42;99137.97;;;12.57;100.00
26775;BME280;14362;51.902;7.626;2023-03-13T08:39:45;99132.56;;;12.68;100.00
26775;BME280;14362;51.902;7.626;2023-03-13T08:43:47;99141.81;;;12.72;100.00
26775;BME280;14362;51.902;7.626;2023-03-13T08:47:51;99139.56;;;12.81;100.00
26775;BME280;14362;51.902;7.626;2023-03-13T08:51:53;99141.00;;;12.71;100.00
26775;BME280;14362;51.902;7.626;2023-03-13T08:55:56;99138.31;;;12.78;100.00
26775;BME280;14362;51.902;7.626;2023-03-13T08:59:58;99147.16;;;12.84;100.00
26775;BME280;14362;51.902;7.626;2023-03-13T09:04:00;99146.69;;;12.78;100.00
26775;BME280;14362;51.902;7.626;2023-03-13T09:08:01;99136.38;;;12.82;100.00
26775;BME280;14362;51.902;7.626;2023-03-13T09:12:08;99139.91;;;12.79;100.00
26775;BME280;14362;51.902;7.626;2023-03-13T09:16:11;99135.50;;;12.78;100.00
26775;BME280;14362;51.902;7.626;2023-03-13T09:20:13;99133.69;;;12.89;100.00
26775;BME280;14362;51.902;7.626;2023-03-13T09:24:14;99127.59;;;13.10;100.00
26775;BME280;14362;51.902;7.626;2023-03-13T09:28:17;99115.97;;;13.37;100.00
26775;BME280;14362;51.902;7.626;2023-03-13T09:32:19;99111.47;;;13.62;100.00
26775;BME280;14362;51.902;7.626;2023-03-13T09:36:21;99099.31;;;13.84;100.00
26775;BME280;14362;51.902;7.626;2023-03-13T09:40:25;99088.22;;;13.98;100.00
26775;BME280;14362;51.902;7.626;2023-03-13T09:44:31;99084.75;;;14.11;100.00
26775;BME280;14362;51.902;7.626;2023-03-13T09:48:40;99077.25;;;14.22;100.00
26775;BME280;14362;51.902;7.626;2023-03-13T09:52:43;99064.53;;;14.32;100.00
26775;BME280;14362;51.902;7.626;2023-03-13T09:56:46;99060.75;;;14.60;100.00
26775;BME280;14362;51.902;7.626;2023-03-13T10:00:53;99072.03;;;14.74;100.00
26775;BME280;14362;51.902;7.626;2023-03-13T10:05:11;99068.72;;;14.58;100.00
26775;BME280;14362;51.902;7.626;2023-03-13T10:09:16;99075.03;;;14.45;100.00
26775;BME280;14362;51.902;7.626;2023-03-13T10:13:24;99068.31;;;14.56;100.00
26775;BME280;14362;51.902;7.626;2023-03-13T10:17:33;99067.91;;;14.58;100.00
26775;BME280;14362;51.902;7.626;2023-03-13T10:21:36;99059.22;;;14.77;100.00
26775;BME280;14362;51.902;7.626;2023-03-13T10:25:38;99049.28;;;14.93;100.00
26775;BME280;14362;51.902;7.626;2023-03-13T10:29:40;99042.06;;;14.89;100.00
26775;BME280;14362;51.902;7.626;2023-03-13T10:33:43;99048.06;;;14.87;100.00
26775;BME280;14362;51.902;7.626;2023-03-13T10:37:44;99029.66;;;14.93;100.00
26775;BME280;14362;51.902;7.626;2023-03-13T10:41:47;99027.69;;;15.04;100.00
26775;BME280;14362;51.902;7.626;2023-03-13T10:45:49;99027.34;;;15.20;100.00
26775;BME280;14362;51.902;7.626;2023-03-13T10:49:55;99002.50;;;15.25;100.00
26775;BME280;14362;51.902;7.626;2023-03-13T10:53:57;99009.41;;;15.48;100.00
26775;BME280;14362;51.902;7.626;2023-03-13T10:58:00;99006.97;;;15.40;100.00
26775;BME280;14362;51.902;7.626;2023-03-13T11:02:02;99001.41;;;15.50;100.00
26775;BME280;14362;51.902;7.626;2023-03-13T11:06:05;99003.38;;;15.33;100.00
26775;BME280;14362;51.902;7.626;2023-03-13T11:10:16;99006.19;;;15.36;100.00
26775;BME280;14362;51.902;7.626;2023-03-13T11:14:19;99000.63;;;15.67;100.00
26775;BME280;14362;51.902;7.626;2023-03-13T11:18:24;98985.78;;;15.67;100.00
26775;BME280;14362;51.902;7.626;2023-03-13T11:22:37;98980.56;;;15.83;100.00
26775;BME280;14362;51.902;7.626;2023-03-13T11:26:46;98963.72;;;15.93;100.00
26775;BME280;14362;51.902;7.626;2023-03-13T11:31:02;98961.31;;;15.92;100.00
26775;BME280;14362;51.902;7.626;2023-03-13T11:35:16;98974.94;;;16.18;100.00
26775;BME280;14362;51.902;7.626;2023-03-13T11:39:37;98942.03;;;16.11;100.00
26775;BME280;14362;51.902;7.626;2023-03-13T11:43:49;98956.06;;;16.18;100.00
26775;BME280;14362;51.902;7.626;2023-03-13T11:48:00;98948.81;;;16.14;100.00
26775;BME280;14362;51.902;7.626;2023-03-13T11:52:11;98950.84;;;16.17;100.00
26775;BME280;14362;51.902;7.626;2023-03-13T11:56:20;98937.59;;;16.31;100.00
26775;BME280;14362;51.902;7.626;2023-03-13T12:00:29;98925.16;;;16.32;100.00
26775;BME280;14362;51.902;7.626;2023-03-13T12:04:34;98929.13;;;16.35;100.00
26775;BME280;14362;51.902;7.626;2023-03-13T12:08:40;98907.44;;;16.39;100.00
26775;BME280;14362;51.902;7.626;2023-03-13T12:12:48;98908.16;;;16.63;100.00
26775;BME280;14362;51.902;7.626;2023-03-13T12:16:53;98890.13;;;16.54;100.00
26775;BME280;14362;51.902;7.626;2023-03-13T12:21:00;98890.97;;;16.47;100.00
26775;BME280;14362;51.902;7.626;2023-03-13T12:25:05;98884.13;;;16.48;100.00
26775;BME280;14362;51.902;7.626;2023-03-13T12:29:16;98874.88;;;16.48;100.00
26775;BME280;14362;51.902;7.626;2023-03-13T12:33:21;98863.22;;;16.46;100.00
26775;BME280;14362;51.902;7.626;2023-03-13T12:37:30;98857.97;;;16.55;100.00
26775;BME280;14362;51.902;7.626;2023-03-13T12:41:37;98859.50;;;16.70;100.00
26775;BME280;14362;51.902;7.626;2023-03-13T12:45:59;98854.25;;;16.79;100.00
26775;BME280;14362;51.902;7.626;2023-03-13T12:50:18;98841.16;;;17.13;100.00
26775;BME280;14362;51.902;7.626;2023-03-13T12:54:34;98835.78;;;17.36;100.00
26775;BME280;14362;51.902;7.626;2023-03-13T12:58:47;98817.25;;;17.38;100.00
26775;BME280;14362;51.902;7.626;2023-03-13T13:03:07;98843.06;;;17.26;100.00
26775;BME280;14362;51.902;7.626;2023-03-13T13:07:21;98815.50;;;17.00;100.00
26775;BME280;14362;51.902;7.626;2023-03-13T13:11:55;98816.91;;;17.33;100.00
26775;BME280;14362;51.902;7.626;2023-03-13T13:16:01;98815.00;;;17.16;100.00
26775;BME280;14362;51.902;7.626;2023-03-13T13:20:38;98822.94;;;17.28;100.00
26775;BME280;14362;51.902;7.626;2023-03-13T13:24:48;98827.78;;;17.24;100.00
26775;BME280;14362;51.902;7.626;2023-03-13T13:28:49;98803.50;;;17.44;100.00
26775;BME280;14362;51.902;7.626;2023-03-13T13:32:51;98796.47;;;17.18;100.00
26775;BME280;14362;51.902;7.626;2023-03-13T13:36:55;98794.28;;;16.89;100.00
26775;BME280;14362;51.902;7.626;2023-03-13T13:40:59;98783.38;;;16.98;100.00
26775;BME280;14362;51.902;7.626;2023-03-13T13:45:02;98786.78;;;17.23;100.00
26775;BME280;14362;51.902;7.626;2023-03-13T13:49:13;98787.69;;;17.09;100.00
26775;BME280;14362;51.902;7.626;2023-03-13T13:53:30;98798.25;;;16.95;100.00
26775;BME280;14362;51.902;7.626;2023-03-13T13:57:35;98810.28;;;16.99;100.00
26775;BME280;14362;51.902;7.626;2023-03-13T14:01:39;98806.78;;;16.84;100.00
26775;BME280;14362;51.902;7.626;2023-03-13T14:05:42;98796.31;;;16.88;100.00
26775;BME280;14362;51.902;7.626;2023-03-13T14:09:57;98789.91;;;16.81;100.00
26775;BME280;14362;51.902;7.626;2023-03-13T14:14:12;98780.78;;;16.63;100.00
26775;BME280;14362;51.902;7.626;2023-03-13T14:18:20;98785.25;;;16.53;100.00
26775;BME280;14362;51.902;7.626;2023-03-13T14:22:21;98766.47;;;16.40;100.00
26775;BME280;14362;51.902;7.626;2023-03-13T14:26:26;98763.22;;;16.42;100.00
26775;BME280;14362;51.902;7.626;2023-03-13T14:30:28;98750.69;;;16.60;100.00
26775;BME280;14362;51.902;7.626;2023-03-13T14:34:29;98751.84;;;16.62;100.00
26775;BME280;14362;51.902;7.626;2023-03-13T14:38:31;98750.28;;;16.54;100.00
26775;BME280;14362;51.902;7.626;2023-03-13T14:42:39;98743.50;;;16.52;100.00
26775;BME280;14362;51.902;7.626;2023-03-13T14:46:42;98741.50;;;16.49;100.00
26775;BME280;14362;51.902;7.626;2023-03-13T14:50:44;98721.09;;;16.35;100.00
26775;BME280;14362;51.902;7.626;2023-03-13T14:54:52;98721.03;;;16.48;100.00
26775;BME280;14362;51.902;7.626;2023-03-13T14:59:05;98708.56;;;16.46;100.00
26775;BME280;14362;51.902;7.626;2023-03-13T15:03:22;98701.34;;;16.48;100.00
26775;BME280;14362;51.902;7.626;2023-03-13T15:07:26;98691.69;;;16.49;100.00
26775;BME280;14362;51.902;7.626;2023-03-13T15:11:30;98698.13;;;16.46;100.00
26775;BME280;14362;51.902;7.626;2023-03-13T15:15:34;98692.88;;;16.52;100.00
26775;BME280;14362;51.902;7.626;2023-03-13T15:19:35;98676.38;;;16.54;100.00
26775;BME280;14362;51.902;7.626;2023-03-13T15:23:37;98677.25;;;16.44;100.00
26775;BME280;14362;51.902;7.626;2023-03-13T15:27:38;98667.19;;;16.46;100.00
26775;BME280;14362;51.902;7.626;2023-03-13T15:31:41;98667.28;;;16.33;100.00
26775;BME280;14362;51.902;7.626;2023-03-13T15:35:43;98660.06;;;16.28;100.00
26775;BME280;14362;51.902;7.626;2023-03-13T15:39:45;98654.50;;;16.21;100.00
26775;BME280;14362;51.902;7.626;2023-03-13T15:43:47;98652.13;;;16.16;100.00
26775;BME280;14362;51.902;7.626;2023-03-13T15:47:53;98642.09;;;16.15;100.00
26775;BME280;14362;51.902;7.626;2023-03-13T15:51:54;98636.84;;;16.17;100.00
26775;BME280;14362;51.902;7.626;2023-03-13T15:55:58;98621.09;;;16.30;100.00
26775;BME280;14362;51.902;7.626;2023-03-13T15:59:59;98616.25;;;16.41;100.00
26775;BME280;14362;51.902;7.626;2023-03-13T16:04:02;98608.22;;;16.36;100.00
26775;BME280;14362;51.902;7.626;2023-03-13T16:08:04;98616.25;;;16.38;100.00
26775;BME280;14362;51.902;7.626;2023-03-13T16:12:06;98595.50;;;16.14;100.00
26775;BME280;14362;51.902;7.626;2023-03-13T16:16:18;98584.78;;;16.02;100.00
26775;BME280;14362;51.902;7.626;2023-03-13T16:20:22;98591.59;;;16.01;100.00
26775;BME280;14362;51.902;7.626;2023-03-13T16:24:25;98583.56;;;16.00;100.00
26775;BME280;14362;51.902;7.626;2023-03-13T16:28:27;98565.59;;;15.87;100.00
26775;BME280;14362;51.902;7.626;2023-03-13T16:32:29;98570.47;;;15.79;100.00
26775;BME280;14362;51.902;7.626;2023-03-13T16:36:32;98551.25;;;15.71;100.00
26775;BME280;14362;51.902;7.626;2023-03-13T16:40:34;98558.91;;;15.67;100.00
26775;BME280;14362;51.902;7.626;2023-03-13T16:44:35;98555.72;;;15.61;100.00
26775;BME280;14362;51.902;7.626;2023-03-13T16:48:37;98556.56;;;15.51;100.00
26775;BME280;14362;51.902;7.626;2023-03-13T16:52:40;98557.41;;;15.45;100.00
26775;BME280;14362;51.902;7.626;2023-03-13T16:56:42;98558.66;;;15.34;100.00
26775;BME280;14362;51.902;7.626;2023-03-13T17:00:43;98563.50;;;15.26;100.00
26775;BME280;14362;51.902;7.626;2023-03-13T17:04:46;98555.53;;;15.14;100.00
26775;BME280;14362;51.902;7.626;2023-03-13T17:08:49;98552.34;;;15.09;100.00
26775;BME280;14362;51.902;7.626;2023-03-13T17:12:50;98553.56;;;15.01;100.00
26775;BME280;14362;51.902;7.626;2023-03-13T17:16:52;98565.63;;;14.84;100.00
26775;BME280;14362;51.902;7.626;2023-03-13T17:20:53;98569.66;;;14.72;100.00
26775;BME280;14362;51.902;7.626;2023-03-13T17:24:56;98563.66;;;14.70;100.00
26775;BME280;14362;51.902;7.626;2023-03-13T17:28:58;98568.06;;;14.61;100.00
26775;BME280;14362;51.902;7.626;2023-03-13T17:33:00;98552.47;;;14.60;100.00
26775;BME280;14362;51.902;7.626;2023-03-13T17:37:02;98557.69;;;14.54;100.00
26775;BME280;14362;51.902;7.626;2023-03-13T17:41:08;98574.91;;;14.49;100.00
26775;BME280;14362;51.902;7.626;2023-03-13T17:45:11;98580.09;;;14.44;100.00
26775;BME280;14362;51.902;7.626;2023-03-13T17:49:14;98586.91;;;14.43;100.00
26775;BME280;14362;51.902;7.626;2023-03-13T17:53:15;98572.91;;;14.43;100.00
26775;BME280;14362;51.902;7.626;2023-03-13T17:57:20;98570.91;;;14.36;100.00
26775;BME280;14362;51.902;7.626;2023-03-13T18:01:24;98564.91;;;14.31;100.00
26775;BME280;14362;51.902;7.626;2023-03-13T18:05:26;98577.72;;;14.32;100.00
26775;BME280;14362;51.902;7.626;2023-03-13T18:09:28;98572.13;;;14.25;100.00
26775;BME280;14362;51.902;7.626;2023-03-13T18:13:30;98574.50;;;14.23;100.00
26775;BME280;14362;51.902;7.626;2023-03-13T18:17:32;98575.31;;;14.20;100.00
26775;BME280;14362;51.902;7.626;2023-03-13T18:21:33;98564.13;;;14.13;100.00
26775;BME280;14362;51.902;7.626;2023-03-13T18:25:35;98555.66;;;14.10;100.00
26775;BME280;14362;51.902;7.626;2023-03-13T18:29:38;98546.06;;;14.04;100.00
26775;BME280;14362;51.902;7.626;2023-03-13T18:33:39;98546.06;;;13.97;100.00
26775;BME280;14362;51.902;7.626;2023-03-13T18:37:43;98552.88;;;13.92;100.00
26775;BME280;14362;51.902;7.626;2023-03-13T18:41:44;98522.84;;;13.89;100.00
26775;BME280;14362;51.902;7.626;2023-03-13T18:45:47;98512.03;;;13.84;100.00
26775;BME280;14362;51.902;7.626;2023-03-13T18:49:49;98519.25;;;13.82;100.00
26775;BME280;14362;51.902;7.626;2023-03-13T18:53:50;98531.25;;;13.79;100.00
26775;BME280;14362;51.902;7.626;2023-03-13T18:57:52;98528.03;;;13.77;100.00
26775;BME280;14362;51.902;7.626;2023-03-13T19:01:56;98522.44;;;13.73;100.00
26775;BME280;14362;51.902;7.626;2023-03-13T19:05:57;98528.81;;;13.63;100.00
26775;BME280;14362;51.902;7.626;2023-03-13T19:10:00;98527.22;;;13.62;100.00
26775;BME280;14362;51.902;7.626;2023-03-13T19:14:02;98537.22;;;13.60;100.00
26775;BME280;14362;51.902;7.626;2023-03-13T19:18:09;98539.97;;;13.53;100.00
26775;BME280;14362;51.902;7.626;2023-03-13T19:22:12;98533.19;;;13.50;100.00
26775;BME280;14362;51.902;7.626;2023-03-13T19:26:16;98539.19;;;13.49;100.00
26775;BME280;14362;51.902;7.626;2023-03-13T19:30:20;98528.75;;;13.42;100.00
26775;BME280;14362;51.902;7.626;2023-03-13T19:34:23;98533.16;;;13.40;100.00
26775;BME280;14362;51.902;7.626;2023-03-13T19:38:24;98535.56;;;13.34;100.00
26775;BME280;14362;51.902;7.626;2023-03-13T19:42:26;98535.16;;;13.29;100.00
26775;BME280;14362;51.902;7.626;2023-03-13T19:46:28;98536.34;;;13.28;100.00
26775;BME280;14362;51.902;7.626;2023-03-13T19:50:31;98525.53;;;13.20;100.00
26775;BME280;14362;51.902;7.626;2023-03-13T19:54:32;98509.53;;;13.17;100.00
26775;BME280;14362;51.902;7.626;2023-03-13T19:58:34;98503.09;;;13.13;100.00
26775;BME280;14362;51.902;7.626;2023-03-13T20:02:36;98494.69;;;13.06;100.00
26775;BME280;14362;51.902;7.626;2023-03-13T20:06:40;98504.66;;;13.00;100.00
26775;BME280;14362;51.902;7.626;2023-03-13T20:10:42;98492.66;;;12.92;100.00
26775;BME280;14362;51.902;7.626;2023-03-13T20:14:43;98474.22;;;12.88;100.00
26775;BME280;14362;51.902;7.626;2023-03-13T20:18:47;98461.03;;;12.85;100.00
26775;BME280;14362;51.902;7.626;2023-03-13T20:22:50;98461.44;;;12.83;100.00
26775;BME280;14362;51.902;7.626;2023-03-13T20:26:53;98455.00;;;12.79;100.00
26775;BME280;14362;51.902;7.626;2023-03-13T20:30:54;98465.00;;;12.77;100.00
26775;BME280;14362;51.902;7.626;2023-03-13T20:34:56;98470.19;;;12.71;100.00
26775;BME280;14362;51.902;7.626;2023-03-13T20:38:59;98470.19;;;12.71;100.00
26775;BME280;14362;51.902;7.626;2023-03-13T20:43:00;98471.78;;;12.72;100.00
26775;BME280;14362;51.902;7.626;2023-03-13T20:47:02;98481.31;;;12.68;100.00
26775;BME280;14362;51.902;7.626;2023-03-13T20:51:04;98477.31;;;12.62;100.00
26775;BME280;14362;51.902;7.626;2023-03-13T20:55:08;98476.91;;;12.60;100.00
26775;BME280;14362;51.902;7.626;2023-03-13T20:59:09;98480.84;;;12.52;100.00
26775;BME280;14362;51.902;7.626;2023-03-13T21:03:11;98470.06;;;12.50;100.00
26775;BME280;14362;51.902;7.626;2023-03-13T21:07:14;98464.91;;;12.52;100.00
26775;BME280;14362;51.902;7.626;2023-03-13T21:11:18;98459.63;;;12.40;100.00
26775;BME280;14362;51.902;7.626;2023-03-13T21:15:20;98460.03;;;12.39;100.00
26775;BME280;14362;51.902;7.626;2023-03-13T21:19:21;98451.66;;;12.46;100.00